Time;durP1;ratioP1;P1;durP2;ratioP2;P2;SDS_P1;SDS_P2;PMS_P1;PMS_P2;Temp;Humidity;BMP_temperature;BMP_pressure;BME280_temperature;BME280_humidity;BME280_pressure;Samples;Min_cycle;Max_cycle;Signal;HPM_P1;HPM_P2
2023/08/26 00:00:55;;;;;;;5.28;1.70;;;20.90;99.90;;;;;;5032155;28;20772;-58
2023/08/26 00:03:22;;;;;;;6.68;1.83;;;20.90;99.90;;;;;;5035125;28;20201;-59
2023/08/26 00:05:52;;;;;;;5.32;1.65;;;20.90;99.90;;;;;;5035135;28;20347;-59
2023/08/26 00:08:20;;;;;;;5.90;1.70;;;20.80;99.90;;;;;;5035434;28;20308;-58
2023/08/26 00:10:47;;;;;;;5.32;1.70;;;20.80;99.90;;;;;;5044088;28;20221;-58
2023/08/26 00:13:15;;;;;;;2.83;1.90;;;20.80;99.90;;;;;;5055095;28;20642;-58
2023/08/26 00:15:43;;;;;;;7.05;1.92;;;20.70;99.90;;;;;;5054520;28;20308;-57
2023/08/26 00:18:11;;;;;;;5.70;1.73;;;20.70;99.90;;;;;;5055036;28;20209;-59
2023/08/26 00:20:40;;;;;;;4.30;1.60;;;20.70;99.90;;;;;;5054760;28;20229;-58
2023/08/26 00:23:09;;;;;;;6.18;1.40;;;20.70;99.90;;;;;;5054858;28;20631;-58
2023/08/26 00:25:37;;;;;;;5.32;1.58;;;20.70;99.90;;;;;;5054630;28;20209;-58
2023/08/26 00:28:05;;;;;;;2.03;1.20;;;20.70;99.90;;;;;;5054692;28;20201;-58
2023/08/26 00:30:33;;;;;;;6.32;1.60;;;20.70;99.90;;;;;;5054672;28;20293;-58
2023/08/26 00:33:01;;;;;;;4.38;1.35;;;20.60;99.90;;;;;;5054508;28;20629;-58
2023/08/26 00:35:29;;;;;;;1.42;1.17;;;20.60;99.90;;;;;;5054477;28;20205;-58
2023/08/26 00:37:57;;;;;;;6.35;1.30;;;20.60;99.90;;;;;;5054620;28;20251;-58
2023/08/26 00:40:27;;;;;;;1.50;1.40;;;20.60;99.90;;;;;;5054547;28;20221;-58
2023/08/26 00:42:55;;;;;;;3.88;1.70;;;20.60;99.90;;;;;;5054207;28;20215;-58
2023/08/26 00:45:23;;;;;;;5.93;1.50;;;20.60;99.90;;;;;;5054260;28;20741;-58
2023/08/26 00:47:51;;;;;;;6.43;1.60;;;20.60;99.90;;;;;;5054370;28;20300;-58
2023/08/26 00:50:19;;;;;;;4.07;1.55;;;20.60;99.90;;;;;;5054455;28;20198;-59
2023/08/26 00:52:47;;;;;;;3.20;0.95;;;20.60;99.90;;;;;;5054288;28;20591;-58
2023/08/26 00:55:15;;;;;;;2.97;1.10;;;20.50;99.90;;;;;;5054035;28;20559;-58
2023/08/26 00:57:44;;;;;;;3.65;1.20;;;20.50;99.90;;;;;;5054095;28;20237;-57
2023/08/26 01:00:12;;;;;;;4.88;1.23;;;20.50;99.90;;;;;;5054303;28;20668;-58
2023/08/26 01:02:40;;;;;;;5.38;1.30;;;20.40;99.90;;;;;;5054097;28;20275;-59
2023/08/26 01:05:08;;;;;;;3.47;1.20;;;20.40;99.90;;;;;;5054025;28;20244;-58
2023/08/26 01:07:36;;;;;;;4.63;1.50;;;20.40;99.90;;;;;;5054015;28;20275;-59
2023/08/26 01:10:05;;;;;;;5.55;1.42;;;20.30;99.90;;;;;;5051148;28;20202;-58
2023/08/26 01:12:39;;;;;;;5.00;1.35;;;20.30;99.90;;;;;;5032974;28;20234;-58
2023/08/26 01:15:11;;;;;;;5.50;1.38;;;20.30;99.90;;;;;;5033870;28;20238;-57
2023/08/26 01:17:39;;;;;;;4.18;1.30;;;20.30;99.90;;;;;;5033713;28;20237;-58
2023/08/26 01:20:08;;;;;;;7.18;1.98;;;20.30;99.90;;;;;;5033839;28;20237;-58
2023/08/26 01:22:36;;;;;;;4.80;1.60;;;20.30;99.90;;;;;;5033646;28;20297;-58
2023/08/26 01:25:06;;;;;;;7.93;1.88;;;20.30;99.90;;;;;;5033768;28;20276;-58
2023/08/26 01:27:34;;;;;;;9.30;1.55;;;20.30;99.90;;;;;;5033885;28;20317;-58
2023/08/26 01:30:01;;;;;;;6.68;1.70;;;20.30;99.90;;;;;;5033802;28;20252;-58
2023/08/26 01:32:33;;;;;;;7.05;1.75;;;20.30;99.90;;;;;;5033569;28;20268;-58
2023/08/26 01:35:01;;;;;;;9.80;2.40;;;20.30;99.90;;;;;;5033202;28;20692;-58
2023/08/26 01:37:29;;;;;;;10.52;1.95;;;20.30;99.90;;;;;;5033276;28;20230;-58
2023/08/26 01:39:59;;;;;;;3.92;1.92;;;20.30;99.90;;;;;;5033387;28;20257;-58
2023/08/26 01:42:28;;;;;;;6.40;1.90;;;20.30;99.90;;;;;;5033428;28;20241;-58
2023/08/26 01:44:56;;;;;;;8.32;2.17;;;20.30;99.90;;;;;;5033260;28;20237;-58
2023/08/26 01:47:24;;;;;;;7.15;2.13;;;20.30;99.90;;;;;;5032140;28;20268;-58
2023/08/26 01:49:52;;;;;;;5.50;2.72;;;20.30;99.90;;;;;;5033617;28;20610;-58
2023/08/26 01:52:20;;;;;;;4.38;2.63;;;20.30;99.90;;;;;;5033367;28;20202;-58
2023/08/26 01:54:49;;;;;;;7.63;2.78;;;20.30;99.90;;;;;;5033172;28;20294;-58
2023/08/26 01:57:17;;;;;;;7.50;2.75;;;20.30;99.90;;;;;;5033006;28;20317;-58
2023/08/26 01:59:46;;;;;;;8.30;3.20;;;20.30;99.90;;;;;;5033291;28;20237;-58
2023/08/26 02:02:14;;;;;;;6.78;3.33;;;20.30;99.90;;;;;;5032839;28;20582;-58
2023/08/26 02:04:42;;;;;;;9.88;3.20;;;20.20;99.90;;;;;;5033016;28;20206;-58
2023/08/26 02:07:10;;;;;;;16.17;4.15;;;20.30;99.90;;;;;;5032827;28;20688;-58
2023/08/26 02:09:37;;;;;;;11.82;3.40;;;20.30;99.90;;;;;;5033296;28;20264;-58
2023/08/26 02:12:06;;;;;;;5.00;3.55;;;20.20;99.90;;;;;;5052110;28;20201;-58
2023/08/26 02:14:34;;;;;;;5.43;3.95;;;20.30;99.90;;;;;;5052623;28;20240;-58
2023/08/26 02:17:03;;;;;;;8.88;4.40;;;20.30;99.90;;;;;;5052401;28;20276;-58
2023/08/26 02:19:31;;;;;;;13.70;5.05;;;20.30;99.90;;;;;;5052846;28;20296;-58
2023/08/26 02:22:00;;;;;;;13.25;5.50;;;20.20;99.90;;;;;;5038141;28;20310;-58
2023/08/26 02:24:29;;;;;;;5.97;4.47;;;20.30;99.90;;;;;;5036603;28;20205;-58
2023/08/26 02:26:57;;;;;;;11.73;4.40;;;20.30;99.90;;;;;;5049247;28;20218;-58
2023/08/26 02:29:24;;;;;;;10.60;4.43;;;20.30;99.90;;;;;;5052207;28;20294;-58
2023/08/26 02:31:52;;;;;;;13.20;6.10;;;20.30;99.90;;;;;;5036894;28;20284;-58
2023/08/26 02:34:22;;;;;;;9.52;5.40;;;20.30;99.90;;;;;;5048843;28;20588;-58
2023/08/26 02:36:49;;;;;;;11.55;6.25;;;20.20;99.90;;;;;;5038596;28;20249;-57
2023/08/26 02:39:17;;;;;;;10.90;6.15;;;20.20;99.90;;;;;;5048068;28;20197;-57
2023/08/26 02:41:45;;;;;;;10.50;5.40;;;20.20;99.90;;;;;;5051798;28;20253;-58
2023/08/26 02:44:13;;;;;;;9.75;5.57;;;20.20;99.90;;;;;;5035650;28;20242;-58
2023/08/26 02:46:41;;;;;;;12.63;5.97;;;20.20;99.90;;;;;;5046500;28;20225;-58
2023/08/26 02:49:09;;;;;;;10.20;6.25;;;20.20;99.90;;;;;;5041230;28;20620;-58
2023/08/26 02:51:38;;;;;;;8.57;6.55;;;20.10;99.90;;;;;;5038918;28;20237;-58
2023/08/26 02:54:06;;;;;;;12.98;6.03;;;20.10;99.90;;;;;;5036359;28;20281;-58
2023/08/26 02:56:34;;;;;;;14.20;7.20;;;20.10;99.90;;;;;;5035837;28;20288;-58
2023/08/26 02:59:02;;;;;;;10.75;6.30;;;20.10;99.90;;;;;;5048897;28;20640;-58
2023/08/26 03:01:30;;;;;;;11.40;6.88;;;20.10;99.90;;;;;;5051771;28;20253;-58
2023/08/26 03:03:58;;;;;;;17.00;7.25;;;20.10;99.90;;;;;;5039763;28;20244;-57
2023/08/26 03:06:26;;;;;;;17.60;7.90;;;20.10;99.90;;;;;;5049186;28;20260;-58
2023/08/26 03:08:55;;;;;;;13.77;6.70;;;20.00;99.90;;;;;;5034861;28;20312;-58
2023/08/26 03:11:23;;;;;;;16.20;7.15;;;20.10;99.90;;;;;;5047462;28;20278;-58
2023/08/26 03:13:51;;;;;;;11.35;7.00;;;20.10;99.90;;;;;;5051448;28;20236;-58
2023/08/26 03:16:19;;;;;;;8.27;6.90;;;20.00;99.90;;;;;;5036540;28;20234;-58
2023/08/26 03:18:47;;;;;;;13.75;6.63;;;20.00;99.90;;;;;;5048155;28;20288;-58
2023/08/26 03:21:15;;;;;;;16.27;7.70;;;20.00;99.90;;;;;;5037059;28;20244;-58
2023/08/26 03:23:43;;;;;;;10.13;6.72;;;20.00;99.90;;;;;;5042005;28;20285;-58
2023/08/26 03:26:12;;;;;;;8.18;6.45;;;20.00;99.90;;;;;;5044696;28;20221;-58
2023/08/26 03:28:40;;;;;;;10.98;6.43;;;20.00;99.90;;;;;;5034720;28;20377;-58
2023/08/26 03:31:08;;;;;;;12.20;6.82;;;20.00;99.90;;;;;;5046560;28;20682;-58
2023/08/26 03:33:36;;;;;;;17.95;6.40;;;20.00;99.90;;;;;;5039686;28;20205;-58
2023/08/26 03:36:04;;;;;;;14.40;6.30;;;20.00;99.90;;;;;;5038099;28;20252;-58
2023/08/26 03:38:32;;;;;;;11.93;5.93;;;20.00;99.90;;;;;;5047515;28;20228;-58
2023/08/26 03:41:02;;;;;;;7.25;5.40;;;19.90;99.90;;;;;;5019205;28;20228;-58
2023/08/26 03:43:32;;;;;;;9.90;5.68;;;19.90;99.90;;;;;;5043252;28;20199;-58
2023/08/26 03:45:59;;;;;;;8.80;5.38;;;19.90;99.90;;;;;;5042799;28;20283;-58
2023/08/26 03:48:27;;;;;;;8.52;5.78;;;19.90;99.90;;;;;;5041949;28;20206;-58
2023/08/26 03:50:56;;;;;;;12.25;5.55;;;19.90;99.90;;;;;;5047898;28;20220;-58
2023/08/26 03:53:24;;;;;;;15.07;6.30;;;19.80;99.90;;;;;;5038115;28;20280;-58
2023/08/26 03:55:52;;;;;;;11.63;5.38;;;19.90;99.90;;;;;;5039996;28;20249;-57
2023/08/26 03:58:20;;;;;;;17.40;6.10;;;19.80;99.90;;;;;;5045648;28;20208;-57
2023/08/26 04:00:50;;;;;;;8.80;5.60;;;19.80;99.90;;;;;;5034332;28;20293;-58
2023/08/26 04:03:18;;;;;;;11.80;5.57;;;19.70;99.90;;;;;;5044683;28;20248;-58
2023/08/26 04:05:46;;;;;;;10.15;5.90;;;19.70;99.90;;;;;;5041024;28;20232;-58
2023/08/26 04:08:14;;;;;;;9.60;4.85;;;19.70;99.90;;;;;;5036793;28;20693;-58
2023/08/26 04:10:42;;;;;;;10.60;5.32;;;19.70;99.90;;;;;;5047508;28;20357;-58
2023/08/26 04:13:21;;;;;;;13.18;4.88;;;19.60;99.90;;;;;;5035904;28;20194;-58
2023/08/26 04:15:52;;;;;;;11.93;4.68;;;19.60;99.90;;;;;;5040151;28;20641;-58
2023/08/26 04:18:20;;;;;;;12.85;4.05;;;19.50;99.90;;;;;;5045924;28;20205;-56
2023/08/26 04:20:48;;;;;;;9.88;4.57;;;19.50;99.90;;;;;;5034427;28;20293;-56
2023/08/26 04:23:16;;;;;;;7.38;4.32;;;19.40;99.90;;;;;;5044614;28;20295;-55
2023/08/26 04:25:44;;;;;;;9.10;4.60;;;19.40;99.90;;;;;;5040285;28;20638;-56
2023/08/26 04:28:12;;;;;;;11.70;4.82;;;19.40;99.90;;;;;;5037291;28;20240;-56
2023/08/26 04:30:40;;;;;;;12.77;4.32;;;19.40;99.90;;;;;;5047588;28;20622;-56
2023/08/26 04:33:09;;;;;;;12.70;4.28;;;19.40;99.90;;;;;;5035627;28;20198;-56
2023/08/26 04:35:37;;;;;;;11.05;3.95;;;19.30;99.90;;;;;;5041646;28;20208;-54
2023/08/26 04:38:05;;;;;;;7.75;3.95;;;19.30;99.90;;;;;;5043323;28;20688;-56
2023/08/26 04:40:33;;;;;;;12.70;4.07;;;19.30;99.90;;;;;;5034032;28;20866;-56
2023/08/26 04:43:03;;;;;;;8.75;3.50;;;19.30;99.90;;;;;;5046709;28;20305;-54
2023/08/26 04:45:31;;;;;;;13.07;4.35;;;19.30;99.90;;;;;;5038514;28;20217;-57
2023/08/26 04:47:59;;;;;;;9.43;3.92;;;19.30;99.90;;;;;;5044550;28;20762;-55
2023/08/26 04:50:29;;;;;;;7.30;3.75;;;19.30;99.90;;;;;;5054418;28;20205;-57
2023/08/26 04:52:57;;;;;;;5.75;3.05;;;19.30;99.90;;;;;;5037441;28;20292;-56
2023/08/26 04:55:25;;;;;;;7.63;3.30;;;19.20;99.90;;;;;;5046939;28;20226;-56
2023/08/26 04:57:53;;;;;;;8.30;3.50;;;19.20;99.90;;;;;;5045102;28;20201;-56
2023/08/26 05:00:22;;;;;;;12.40;3.97;;;19.20;99.90;;;;;;5039143;28;20229;-56
2023/08/26 05:02:50;;;;;;;8.85;3.20;;;19.20;99.90;;;;;;5050479;28;20308;-56
2023/08/26 05:05:20;;;;;;;6.22;3.10;;;19.20;99.90;;;;;;5040310;28;20200;-57
2023/08/26 05:07:49;;;;;;;6.78;2.75;;;19.10;99.90;;;;;;5043583;28;20284;-57
2023/08/26 05:10:17;;;;;;;7.03;2.80;;;19.10;99.90;;;;;;5048624;28;20280;-56
2023/08/26 05:12:45;;;;;;;7.80;3.30;;;19.00;99.90;;;;;;5037394;28;20648;-55
2023/08/26 05:15:13;;;;;;;4.57;2.50;;;19.00;99.90;;;;;;5048257;28;20229;-56
2023/08/26 05:17:41;;;;;;;3.33;2.53;;;18.90;99.90;;;;;;5042918;28;20340;-56
2023/08/26 05:20:09;;;;;;;8.18;2.88;;;18.90;99.90;;;;;;5040498;28;20209;-56
2023/08/26 05:22:37;;;;;;;9.73;2.47;;;18.80;99.90;;;;;;5050215;28;20221;-55
2023/08/26 05:25:08;;;;;;;3.35;2.25;;;18.80;99.90;;;;;;5038132;28;20275;-56
2023/08/26 05:27:36;;;;;;;4.63;2.20;;;18.80;99.90;;;;;;5044718;28;20698;-55
2023/08/26 05:30:04;;;;;;;2.58;2.08;;;18.80;99.90;;;;;;5046298;28;20229;-56
2023/08/26 05:32:32;;;;;;;3.47;1.80;;;18.80;99.90;;;;;;5036874;28;20620;-56
2023/08/26 05:35:00;;;;;;;2.92;1.90;;;18.80;99.90;;;;;;5021091;28;20715;-55
2023/08/26 05:37:28;;;;;;;2.90;2.00;;;18.80;99.90;;;;;;5045566;28;20226;-56
2023/08/26 05:39:56;;;;;;;2.55;1.75;;;18.90;99.90;;;;;;5041292;28;20327;-56
2023/08/26 05:42:25;;;;;;;3.13;1.65;;;18.90;99.90;;;;;;5044440;28;20257;-55
2023/08/26 05:44:53;;;;;;;4.95;2.00;;;19.00;99.90;;;;;;5038108;28;20242;-56
2023/08/26 05:47:21;;;;;;;10.63;2.53;;;19.00;99.90;;;;;;5039898;28;20222;-55
2023/08/26 05:49:49;;;;;;;3.80;1.88;;;19.00;99.90;;;;;;5053379;28;20209;-55
2023/08/26 05:52:17;;;;;;;9.40;1.88;;;19.00;99.90;;;;;;5038660;28;20289;-56
2023/08/26 05:54:44;;;;;;;6.05;1.40;;;19.00;99.90;;;;;;5049304;28;20275;-56
2023/08/26 05:57:12;;;;;;;7.47;2.45;;;18.90;99.90;;;;;;5038391;28;20300;-56
2023/08/26 05:59:42;;;;;;;7.93;2.10;;;18.90;99.90;;;;;;5043036;28;20547;-56
2023/08/26 06:02:10;;;;;;;5.93;1.90;;;18.90;99.90;;;;;;5041343;28;20202;-56
2023/08/26 06:04:38;;;;;;;3.42;1.65;;;18.90;99.90;;;;;;5036423;28;20249;-56
2023/08/26 06:07:06;;;;;;;4.40;1.75;;;18.90;99.90;;;;;;5037102;28;20660;-57
2023/08/26 06:09:33;;;;;;;4.53;1.77;;;18.80;99.90;;;;;;5046256;28;20290;-54
2023/08/26 06:12:01;;;;;;;8.98;1.92;;;18.70;99.90;;;;;;5032676;28;20287;-55
2023/08/26 06:14:30;;;;;;;6.72;1.95;;;18.70;99.90;;;;;;5048816;28;20633;-55
2023/08/26 06:16:59;;;;;;;7.57;2.00;;;18.70;99.90;;;;;;5035776;28;20670;-55
2023/08/26 06:19:27;;;;;;;7.38;2.20;;;18.60;99.90;;;;;;5044990;28;20700;-55
2023/08/26 06:21:54;;;;;;;3.70;1.63;;;18.60;99.90;;;;;;5043824;28;20728;-56
2023/08/26 06:24:22;;;;;;;5.88;2.00;;;18.60;99.90;;;;;;5037068;28;20310;-56
2023/08/26 06:26:50;;;;;;;8.35;1.55;;;18.60;99.90;;;;;;5048800;28;20741;-57
2023/08/26 06:29:19;;;;;;;6.50;1.42;;;18.50;99.90;;;;;;5038596;28;20194;-56
2023/08/26 06:31:47;;;;;;;5.72;1.23;;;18.40;99.90;;;;;;5042115;28;20627;-55
2023/08/26 06:34:16;;;;;;;1.92;1.20;;;18.40;99.90;;;;;;5046265;28;20198;-56
2023/08/26 06:36:45;;;;;;;2.38;1.08;;;18.40;99.90;;;;;;5035437;28;20252;-56
2023/08/26 06:39:13;;;;;;;2.50;1.27;;;18.40;99.90;;;;;;5046229;28;20256;-55
2023/08/26 06:41:41;;;;;;;3.22;1.38;;;18.40;99.90;;;;;;5041796;28;20208;-56
2023/08/26 06:44:09;;;;;;;9.88;2.10;;;18.40;99.90;;;;;;5038717;28;20225;-56
2023/08/26 06:46:37;;;;;;;6.75;1.10;;;18.40;99.90;;;;;;5046762;28;20221;-56
2023/08/26 06:49:05;;;;;;;3.90;1.50;;;18.40;99.90;;;;;;5043213;28;20217;-56
2023/08/26 06:51:34;;;;;;;3.97;1.10;;;18.30;99.90;;;;;;5043543;28;20198;-57
2023/08/26 06:54:02;;;;;;;5.03;1.48;;;18.30;99.90;;;;;;5044217;28;20194;-56
2023/08/26 06:56:30;;;;;;;3.58;1.17;;;18.30;99.90;;;;;;5035737;28;20261;-55
2023/08/26 06:58:58;;;;;;;4.70;1.08;;;18.40;99.90;;;;;;5018953;28;20230;-55
2023/08/26 07:01:26;;;;;;;3.67;1.25;;;18.40;99.90;;;;;;5044550;28;20226;-56
2023/08/26 07:04:02;;;;;;;7.72;1.45;;;18.50;99.90;;;;;;5042819;28;20232;-56
2023/08/26 07:06:30;;;;;;;1.58;1.13;;;18.60;99.90;;;;;;5035060;28;20222;-56
2023/08/26 07:08:59;;;;;;;1.25;1.05;;;18.60;99.90;;;;;;5018583;28;20669;-56
2023/08/26 07:11:27;;;;;;;4.78;1.20;;;18.60;99.90;;;;;;5043542;28;20281;-55
2023/08/26 07:13:55;;;;;;;3.53;1.42;;;18.60;99.90;;;;;;5041360;28;20205;-54
2023/08/26 07:16:23;;;;;;;5.78;1.05;;;18.60;99.90;;;;;;5035712;28;20287;-55
2023/08/26 07:18:51;;;;;;;1.98;0.85;;;18.60;99.90;;;;;;5046359;28;20207;-54
2023/08/26 07:21:19;;;;;;;3.13;0.90;;;18.60;99.90;;;;;;5037945;28;20201;-55
2023/08/26 07:23:47;;;;;;;1.80;1.00;;;18.60;99.90;;;;;;5040952;28;20221;-55
2023/08/26 07:26:16;;;;;;;3.60;0.90;;;18.60;99.90;;;;;;5045348;28;20225;-55
2023/08/26 07:28:45;;;;;;;3.30;1.17;;;18.60;99.90;;;;;;5034747;28;20296;-56
2023/08/26 07:31:13;;;;;;;3.80;1.17;;;18.70;99.90;;;;;;5045582;28;20673;-56
2023/08/26 07:33:41;;;;;;;4.93;1.17;;;18.80;99.90;;;;;;5040541;28;20236;-56
2023/08/26 07:36:09;;;;;;;3.92;1.40;;;18.80;99.90;;;;;;5037847;28;20522;-55
2023/08/26 07:38:38;;;;;;;2.40;0.90;;;18.90;99.90;;;;;;5047820;28;20213;-56
2023/08/26 07:41:06;;;;;;;1.65;1.17;;;18.90;99.90;;;;;;5035970;28;20193;-55
2023/08/26 07:43:37;;;;;;;3.53;1.38;;;19.00;99.90;;;;;;5042382;28;20272;-55
2023/08/26 07:46:05;;;;;;;3.38;1.33;;;19.10;99.90;;;;;;5043716;28;20640;-56
2023/08/26 07:48:36;;;;;;;1.67;1.00;;;19.10;99.90;;;;;;5042385;28;20310;-55
2023/08/26 07:51:05;;;;;;;3.90;1.40;;;19.20;99.90;;;;;;5046860;28;20202;-59
2023/08/26 07:53:33;;;;;;;3.30;1.20;;;19.20;99.90;;;;;;5039165;28;20243;-57
2023/08/26 07:56:01;;;;;;;1.42;0.85;;;19.20;99.90;;;;;;5038935;28;20257;-57
2023/08/26 07:58:29;;;;;;;2.05;0.82;;;19.20;99.90;;;;;;5046862;28;20230;-56
2023/08/26 08:00:58;;;;;;;4.13;0.90;;;19.30;99.90;;;;;;5034547;28;20197;-56
2023/08/26 08:03:26;;;;;;;3.63;1.17;;;19.30;99.90;;;;;;5043588;28;20657;-56
2023/08/26 08:05:54;;;;;;;2.38;0.88;;;19.30;99.90;;;;;;5041875;28;20736;-55
2023/08/26 08:08:22;;;;;;;3.60;1.02;;;19.40;99.90;;;;;;5036069;28;20234;-57
2023/08/26 08:10:50;;;;;;;3.90;1.10;;;19.40;99.90;;;;;;5047463;28;20233;-59
2023/08/26 08:13:18;;;;;;;5.55;1.00;;;19.40;99.90;;;;;;5037321;28;20608;-57
2023/08/26 08:15:46;;;;;;;3.20;1.13;;;19.50;99.90;;;;;;5040312;28;20700;-56
2023/08/26 08:18:15;;;;;;;7.95;0.90;;;19.50;99.90;;;;;;5044733;28;20212;-58
2023/08/26 08:20:43;;;;;;;3.63;1.20;;;19.50;99.90;;;;;;5034301;28;20202;-55
2023/08/26 08:23:11;;;;;;;1.60;0.85;;;19.60;99.90;;;;;;5048397;28;20225;-56
2023/08/26 08:25:39;;;;;;;4.03;1.00;;;19.60;99.90;;;;;;5043828;28;20284;-56
2023/08/26 08:28:07;;;;;;;3.22;1.10;;;19.70;99.90;;;;;;5041785;28;20202;-55
2023/08/26 08:30:35;;;;;;;4.50;1.20;;;19.80;99.90;;;;;;5051334;28;20225;-57
2023/08/26 08:33:03;;;;;;;2.40;0.90;;;20.00;99.90;;;;;;5038634;28;20746;-57
2023/08/26 08:35:32;;;;;;;1.45;0.95;;;20.10;99.90;;;;;;5046254;28;20195;-57
2023/08/26 08:38:00;;;;;;;2.33;0.93;;;20.20;99.90;;;;;;5046623;28;20241;-55
2023/08/26 08:40:28;;;;;;;2.28;0.95;;;20.30;99.90;;;;;;5038857;28;20268;-58
2023/08/26 08:42:56;;;;;;;4.32;1.00;;;20.20;99.90;;;;;;5051081;28;20280;-57
2023/08/26 08:45:25;;;;;;;6.05;1.00;;;20.30;99.90;;;;;;5041321;28;20734;-57
2023/08/26 08:47:53;;;;;;;2.13;1.00;;;20.30;99.90;;;;;;5045467;28;20233;-59
2023/08/26 08:50:22;;;;;;;2.25;1.23;;;20.50;99.90;;;;;;5054411;28;20206;-55
2023/08/26 08:52:55;;;;;;;3.20;0.93;;;20.50;99.90;;;;;;5038038;28;20662;-55
2023/08/26 08:55:23;;;;;;;1.95;1.17;;;20.70;99.90;;;;;;5047017;28;20719;-56
2023/08/26 08:57:53;;;;;;;2.10;1.00;;;20.70;99.90;;;;;;5044979;28;20209;-56
2023/08/26 09:00:21;;;;;;;5.00;1.17;;;20.80;99.90;;;;;;5039308;28;20202;-58
2023/08/26 09:02:49;;;;;;;2.58;0.80;;;20.90;99.90;;;;;;5050445;28;20654;-56
2023/08/26 09:05:17;;;;;;;2.03;0.90;;;21.00;99.90;;;;;;5040076;28;20304;-56
2023/08/26 09:07:45;;;;;;;6.03;0.93;;;21.00;99.90;;;;;;5043969;28;20230;-55
2023/08/26 09:10:14;;;;;;;4.95;1.35;;;21.00;99.90;;;;;;5047910;28;20229;-56
2023/08/26 09:12:42;;;;;;;1.13;0.85;;;21.00;99.90;;;;;;5037640;28;20234;-57
2023/08/26 09:15:10;;;;;;;6.10;1.17;;;21.00;99.90;;;;;;5048403;28;20264;-57
2023/08/26 09:17:38;;;;;;;1.77;0.80;;;21.00;99.90;;;;;;5042695;28;20341;-57
2023/08/26 09:20:07;;;;;;;3.10;0.95;;;21.10;99.90;;;;;;5040574;28;20210;-57
2023/08/26 09:22:35;;;;;;;0.80;0.80;;;21.20;99.90;;;;;;5050436;28;20233;-55
2023/08/26 09:25:04;;;;;;;2.17;0.82;;;21.20;99.90;;;;;;5037534;28;20213;-56
2023/08/26 09:27:35;;;;;;;2.70;0.80;;;21.20;99.90;;;;;;5045426;28;20673;-57
2023/08/26 09:30:04;;;;;;;2.45;0.80;;;21.30;99.90;;;;;;5045779;28;20581;-57
2023/08/26 09:32:33;;;;;;;2.15;0.90;;;21.40;99.90;;;;;;5037378;28;20206;-57
2023/08/26 09:35:19;;;;;;;1.42;0.57;;;21.40;99.90;;;;;;5020365;28;20193;-56
2023/08/26 09:38:08;;;;;;;1.05;0.93;;;21.40;99.90;;;;;;5040395;28;20212;-57
2023/08/26 09:40:35;;;;;;;2.28;0.70;;;21.50;99.90;;;;;;5049877;28;20292;-55
2023/08/26 09:43:06;;;;;;;0.88;0.70;;;21.50;99.90;;;;;;5037764;28;20255;-57
2023/08/26 09:45:36;;;;;;;1.42;0.70;;;21.60;99.90;;;;;;5044541;28;20254;-56
2023/08/26 09:48:05;;;;;;;2.40;0.77;;;21.50;99.90;;;;;;5045746;28;20681;-60
2023/08/26 09:50:34;;;;;;;0.77;0.75;;;21.50;99.90;;;;;;5052909;28;20625;-57
2023/08/26 09:53:03;;;;;;;1.33;0.75;;;21.60;99.90;;;;;;5037071;28;20202;-55
2023/08/26 09:55:31;;;;;;;1.85;0.60;;;21.70;99.90;;;;;;5044957;28;20206;-57
2023/08/26 09:57:59;;;;;;;0.73;0.70;;;21.90;99.90;;;;;;5045023;28;20251;-58
2023/08/26 10:00:28;;;;;;;2.90;1.00;;;22.00;99.90;;;;;;5037511;28;20206;-58
2023/08/26 10:03:00;;;;;;;1.10;0.70;;;22.10;99.90;;;;;;5049402;28;20234;-57
2023/08/26 10:05:28;;;;;;;1.10;0.80;;;22.00;99.90;;;;;;5040096;28;20209;-56
2023/08/26 10:07:56;;;;;;;2.25;0.90;;;22.00;99.90;;;;;;5041680;28;20202;-58
2023/08/26 10:10:28;;;;;;;2.70;0.70;;;21.90;99.90;;;;;;5048461;28;20209;-56
2023/08/26 10:12:57;;;;;;;1.08;0.70;;;21.90;99.90;;;;;;5036402;28;20220;-58
2023/08/26 10:15:25;;;;;;;2.90;0.70;;;21.90;99.90;;;;;;5045302;28;20599;-56
2023/08/26 10:17:54;;;;;;;0.80;0.80;;;21.90;99.90;;;;;;5079609;22;20472;-74
2023/08/26 10:20:23;;;;;;;1.27;0.70;;;22.00;99.90;;;;;;5072859;28;20250;-74
2023/08/26 10:22:51;;;;;;;2.47;0.75;;;22.10;99.90;;;;;;5056427;28;20240;-74
2023/08/26 10:25:19;;;;;;;1.08;0.60;;;22.40;99.90;;;;;;5065706;28;20221;-74
2023/08/26 10:27:47;;;;;;;2.33;0.90;;;22.60;99.90;;;;;;5062990;28;20254;-74
2023/08/26 10:30:15;;;;;;;1.00;0.90;;;23.00;99.90;;;;;;5058251;28;20240;-74
2023/08/26 10:32:44;;;;;;;0.95;0.88;;;23.20;99.90;;;;;;5069153;28;20262;-74
2023/08/26 10:35:14;;;;;;;2.78;0.90;;;23.30;99.90;;;;;;5057997;28;20224;-74
2023/08/26 10:37:42;;;;;;;8.60;0.60;;;23.50;99.90;;;;;;5063405;28;20205;-74
2023/08/26 10:40:12;;;;;;;1.40;0.63;;;23.60;99.90;;;;;;5066017;28;20268;-74
2023/08/26 10:42:40;;;;;;;1.45;0.65;;;23.70;99.90;;;;;;5056083;28;20645;-73
2023/08/26 10:45:13;;;;;;;2.33;0.77;;;24.00;99.90;;;;;;5066990;28;20312;-74
2023/08/26 10:47:44;;;;;;;1.27;0.70;;;24.20;99.90;;;;;;5061524;28;20287;-74
2023/08/26 10:50:18;;;;;;;2.55;0.60;;;24.10;99.90;;;;;;5065997;28;20204;-74
2023/08/26 10:52:46;;;;;;;1.85;0.75;;;24.10;99.90;;;;;;5055631;28;20284;-74
2023/08/26 10:55:18;;;;;;;1.52;0.90;;;24.10;99.90;;;;;;5066241;28;20221;-74
2023/08/26 10:58:17;;;;;;;0.50;0.50;;;24.10;99.90;;;;;;5062595;28;20201;-73
2023/08/26 11:00:46;;;;;;;1.23;0.65;;;24.10;99.90;;;;;;4974236;28;20203;-74
2023/08/26 11:03:14;;;;;;;2.35;0.82;;;24.10;99.90;;;;;;5048553;28;20668;-74
2023/08/26 11:05:44;;;;;;;3.58;1.00;;;24.10;99.90;;;;;;5060833;28;20229;-74
2023/08/26 11:08:12;;;;;;;1.70;0.68;;;23.90;99.90;;;;;;5057802;28;20678;-74
2023/08/26 11:10:41;;;;;;;1.83;1.00;;;23.70;99.90;;;;;;5068117;28;20204;-74
2023/08/26 11:13:09;;;;;;;0.85;0.73;;;23.60;99.90;;;;;;5056768;28;20192;-74
2023/08/26 11:15:38;;;;;;;1.00;0.60;;;23.60;99.90;;;;;;5062917;28;20275;-74
2023/08/26 11:18:06;;;;;;;1.90;0.80;;;23.50;99.90;;;;;;5064365;28;20299;-74
2023/08/26 11:20:34;;;;;;;0.95;0.80;;;23.50;99.90;;;;;;5055009;28;20663;-74
2023/08/26 11:23:04;;;;;;;0.68;0.68;;;23.60;99.90;;;;;;5067558;28;20296;-74
2023/08/26 11:25:33;;;;;;;0.95;0.70;;;23.80;99.90;;;;;;5059590;28;20274;-74
2023/08/26 11:28:05;;;;;;;2.85;0.75;;;24.00;99.90;;;;;;5059802;28;20201;-73
2023/08/26 11:30:36;;;;;;;4.57;0.70;;;24.10;99.90;;;;;;5068578;28;20643;-73
2023/08/26 11:33:08;;;;;;;2.65;0.80;;;24.20;99.90;;;;;;5056137;28;20219;-74
2023/08/26 11:35:38;;;;;;;2.20;1.02;;;24.20;99.90;;;;;;5062783;28;20217;-74
2023/08/26 11:38:08;;;;;;;0.68;0.60;;;24.30;99.90;;;;;;5064632;28;20232;-74
2023/08/26 11:40:35;;;;;;;1.13;0.70;;;24.50;99.90;;;;;;5055449;28;20259;-74
2023/08/26 11:43:07;;;;;;;1.38;0.70;;;24.70;99.90;;;;;;5067358;28;20251;-74
2023/08/26 11:45:36;;;;;;;2.75;0.77;;;24.80;99.90;;;;;;5060295;28;20255;-74
2023/08/26 11:48:04;;;;;;;1.30;0.68;;;24.70;99.90;;;;;;5059372;28;20229;-74
2023/08/26 11:50:32;;;;;;;3.17;0.52;;;24.90;99.90;;;;;;5051614;28;20197;-73
2023/08/26 11:53:02;;;;;;;1.58;0.82;;;25.10;99.90;;;;;;5039275;28;20271;-73
2023/08/26 11:55:32;;;;;;;1.30;0.63;;;25.50;99.90;;;;;;5064638;28;20232;-73
2023/08/26 11:58:00;;;;;;;1.42;0.88;;;26.00;99.90;;;;;;5051459;28;20213;-74
2023/08/26 12:00:28;;;;;;;1.25;0.77;;;26.30;99.90;;;;;;5057724;28;20288;-74
2023/08/26 12:03:00;;;;;;;2.42;0.70;;;26.60;99.90;;;;;;5054956;28;20613;-74
2023/08/26 12:05:27;;;;;;;0.57;0.57;;;26.90;99.90;;;;;;5055049;28;20216;-74
2023/08/26 12:07:56;;;;;;;1.00;0.60;;;26.90;99.90;;;;;;5062950;28;20269;-74
2023/08/26 12:10:25;;;;;;;0.93;0.73;;;26.80;99.90;;;;;;5055901;28;20255;-73
2023/08/26 12:13:02;;;;;;;1.58;0.70;;;27.00;99.90;;;;;;5068875;28;20205;-74
2023/08/26 12:15:30;;;;;;;0.60;0.60;;;27.10;99.90;;;;;;5058771;28;20220;-74
2023/08/26 12:18:00;;;;;;;3.15;0.70;;;27.40;99.90;;;;;;5059330;28;20255;-74
2023/08/26 12:20:29;;;;;;;0.77;0.77;;;27.70;99.90;;;;;;5066891;28;20289;-74
2023/08/26 12:22:59;;;;;;;2.15;0.70;;;27.70;99.90;;;;;;5054475;28;20258;-73
2023/08/26 12:25:30;;;;;;;0.98;0.70;;;27.30;99.90;;;;;;5063100;28;20715;-74
2023/08/26 12:28:23;;;;;;;4.78;0.90;;;26.90;99.90;;;;;;5063286;28;20196;-74
2023/08/26 12:30:51;;;;;;;1.58;0.70;;;27.20;99.90;;;;;;5047733;28;20205;-73
2023/08/26 12:33:19;;;;;;;2.35;0.90;;;27.50;99.90;;;;;;5057268;28;20236;-73
2023/08/26 12:35:53;;;;;;;0.70;0.70;;;27.80;99.90;;;;;;5066462;28;20305;-74
2023/08/26 12:38:22;;;;;;;1.20;0.68;;;28.00;99.90;;;;;;5056110;28;20212;-74
2023/08/26 12:40:50;;;;;;;1.88;0.75;;;28.40;99.90;;;;;;5058278;28;20212;-74
2023/08/26 12:43:19;;;;;;;2.65;0.80;;;28.70;99.90;;;;;;5056400;28;20318;-74
2023/08/26 12:45:49;;;;;;;2.05;0.90;;;28.90;99.90;;;;;;5052842;28;20746;-74
2023/08/26 12:48:18;;;;;;;1.30;0.73;;;29.00;99.60;;;;;;5051552;28;20198;-73
2023/08/26 12:50:49;;;;;;;0.98;0.65;;;28.70;99.90;;;;;;5052776;28;20649;-74
2023/08/26 12:53:16;;;;;;;1.02;0.80;;;28.60;99.90;;;;;;5049508;28;20202;-73